Time;durP1;ratioP1;P1;durP2;ratioP2;P2;SDS_P1;SDS_P2;PMS_P1;PMS_P2;Temp;Humidity;BMP_temperature;BMP_pressure;BME280_temperature;BME280_humidity;BME280_pressure;Samples;Min_cycle;Max_cycle;Signal;HPM_P1;HPM_P2
2022/05/30 00:02:04;;;;;;;12.57;3.25;;;;;;;-145.76;100.00;65039.31;4946267;28;20042;-71
2022/05/30 00:04:29;;;;;;;17.02;3.53;;;;;;;-145.76;100.00;65039.31;4929642;28;20121;-71
2022/05/30 00:06:55;;;;;;;10.88;3.25;;;;;;;-145.76;100.00;65039.31;4931411;28;20252;-71
2022/05/30 00:09:20;;;;;;;14.05;3.47;;;;;;;-145.76;100.00;65039.31;4945805;28;22949;-71
2022/05/30 00:11:48;;;;;;;16.48;4.00;;;;;;;-145.76;100.00;65039.31;4931041;28;22448;-71
2022/05/30 00:14:13;;;;;;;11.70;3.65;;;;;;;-145.76;100.00;65039.31;4940988;28;20034;-71
2022/05/30 00:16:39;;;;;;;13.70;3.65;;;;;;;-145.76;100.00;65039.31;4923980;28;20052;-71
2022/05/30 00:19:04;;;;;;;12.98;3.85;;;;;;;-145.76;100.00;65039.31;4946559;28;20052;-71
2022/05/30 00:21:30;;;;;;;17.15;4.47;;;;;;;-145.76;100.00;65039.31;4931202;28;20038;-71
2022/05/30 00:23:55;;;;;;;15.25;4.60;;;;;;;-145.76;100.00;65039.31;4946713;28;20339;-71
2022/05/30 00:26:24;;;;;;;12.65;4.28;;;;;;;-145.76;100.00;65039.31;4928726;28;20505;-71
2022/05/30 00:28:49;;;;;;;14.00;4.00;;;;;;;-145.76;100.00;65039.31;4928511;28;20562;-71
2022/05/30 00:31:16;;;;;;;18.73;4.15;;;;;;;-145.76;100.00;65039.31;4962391;28;20026;-71
2022/05/30 00:33:44;;;;;;;13.88;4.15;;;;;;;-145.76;100.00;65039.31;4927075;28;21521;-71
2022/05/30 00:36:10;;;;;;;17.05;4.55;;;;;;;-145.76;100.00;65039.31;4947514;28;20374;-71
2022/05/30 00:38:35;;;;;;;13.80;4.50;;;;;;;-145.76;100.00;65039.31;4929315;28;22827;-71
2022/05/30 00:41:01;;;;;;;16.38;4.72;;;;;;;-145.76;100.00;65039.31;4946988;28;20153;-71
2022/05/30 00:43:29;;;;;;;15.65;4.40;;;;;;;-145.76;100.00;65039.31;4928497;28;20061;-71
2022/05/30 00:45:57;;;;;;;15.85;4.63;;;;;;;-145.76;100.00;65039.31;4946178;28;20150;-71
2022/05/30 00:48:33;;;;;;;18.17;4.85;;;;;;;-145.76;100.00;65039.31;4945682;28;20176;-71
2022/05/30 00:51:04;;;;;;;17.33;4.88;;;;;;;-145.76;100.00;65039.31;4908751;28;20095;-71
2022/05/30 00:53:32;;;;;;;14.07;4.78;;;;;;;-145.76;100.00;65039.31;4945399;28;21108;-71
2022/05/30 00:55:58;;;;;;;16.33;4.15;;;;;;;-145.76;100.00;65039.31;4927354;28;20038;-71
2022/05/30 00:58:27;;;;;;;12.30;5.00;;;;;;;-145.76;100.00;65039.31;4953881;28;20104;-71
2022/05/30 01:00:52;;;;;;;14.02;5.38;;;;;;;-145.76;100.00;65039.31;4927208;28;20410;-71
2022/05/30 01:08:46;;;;;;;17.33;5.35;;;;;;;-145.76;100.00;65039.31;4945960;28;20042;-72
2022/05/30 01:11:11;;;;;;;26.30;8.00;;;;;;;-145.76;100.00;65039.31;4931073;28;20084;-71
2022/05/30 01:13:38;;;;;;;36.75;12.77;;;;;;;-145.76;100.00;65039.31;4939516;28;20073;-71
2022/05/30 01:16:04;;;;;;;32.35;10.73;;;;;;;-145.76;100.00;65039.31;4945097;28;20044;-71
2022/05/30 01:18:42;;;;;;;39.20;12.68;;;;;;;-145.76;100.00;65039.31;4928054;28;20074;-71
2022/05/30 01:21:38;;;;;;;33.60;8.70;;;;;;;-145.76;100.00;65039.31;4945293;28;20052;-71
2022/05/30 01:24:22;;;;;;;23.95;7.45;;;;;;;-145.76;100.00;65039.31;4930175;28;20067;-71
2022/05/30 01:26:59;;;;;;;;;;;;;;;-145.76;100.00;65039.31;4944922;28;20029;-71
2022/05/30 01:29:35;;;;;;;18.30;4.85;;;;;;;-145.76;100.00;65039.31;4932524;28;19925;-71
2022/05/30 01:32:00;;;;;;;18.38;5.75;;;;;;;-145.76;100.00;65039.31;4940752;28;20371;-72
2022/05/30 01:34:27;;;;;;;18.80;5.85;;;;;;;-145.76;100.00;65039.31;4930074;28;20033;-73
2022/05/30 01:36:52;;;;;;;15.85;4.93;;;;;;;-145.76;100.00;65039.31;4935309;28;20077;-73
2022/05/30 01:39:18;;;;;;;11.80;4.50;;;;;;;-145.76;100.00;65039.31;4929221;28;20050;-73
2022/05/30 01:41:43;;;;;;;18.33;4.53;;;;;;;-145.76;100.00;65039.31;4944803;28;20553;-73
2022/05/30 01:44:09;;;;;;;12.98;4.70;;;;;;;-145.76;100.00;65039.31;4933213;28;20584;-74
2022/05/30 01:46:35;;;;;;;12.93;5.38;;;;;;;-145.76;100.00;65039.31;4948319;28;20323;-74
2022/05/30 01:49:00;;;;;;;11.32;4.40;;;;;;;-145.76;100.00;65039.31;4943314;28;20030;-74
2022/05/30 01:51:26;;;;;;;17.17;4.72;;;;;;;-145.76;100.00;65039.31;4928003;28;20041;-74
2022/05/30 01:53:52;;;;;;;9.32;4.07;;;;;;;-145.76;100.00;65039.31;4939296;28;20045;-75
2022/05/30 01:56:18;;;;;;;13.63;4.20;;;;;;;-145.76;100.00;65039.31;4928254;28;20042;-73
2022/05/30 01:58:44;;;;;;;14.93;4.68;;;;;;;-145.76;100.00;65039.31;4943752;28;20085;-73
2022/05/30 02:01:17;;;;;;;14.98;4.30;;;;;;;-145.76;100.00;65039.31;4927053;28;20042;-73
2022/05/30 02:03:44;;;;;;;12.70;4.63;;;;;;;-145.76;100.00;65039.31;4942530;28;20041;-74
2022/05/30 02:06:09;;;;;;;11.70;4.25;;;;;;;-145.76;100.00;65039.31;4937729;28;20034;-74
2022/05/30 02:08:35;;;;;;;11.57;4.30;;;;;;;-145.76;100.00;65039.31;4927628;28;20123;-73
2022/05/30 02:11:00;;;;;;;10.57;4.10;;;;;;;-145.76;100.00;65039.31;4942357;28;20042;-74
2022/05/30 02:13:26;;;;;;;15.07;4.55;;;;;;;-145.76;100.00;65039.31;4930061;28;20058;-74
2022/05/30 02:18:35;;;;;;;12.50;4.10;;;;;;;-145.76;100.00;65039.31;4926704;28;20057;-73
2022/05/30 02:21:01;;;;;;;13.80;4.15;;;;;;;-145.76;100.00;65039.31;4946870;28;20038;-74
2022/05/30 02:23:26;;;;;;;10.93;4.32;;;;;;;-145.76;100.00;65039.31;4910756;28;20104;-73
2022/05/30 02:25:52;;;;;;;12.77;4.35;;;;;;;-145.76;100.00;65039.31;4946391;28;20718;-73
2022/05/30 02:28:17;;;;;;;17.17;5.18;;;;;;;-145.76;100.00;65039.31;4945792;28;20038;-73
2022/05/30 02:30:43;;;;;;;18.65;5.45;;;;;;;-145.76;100.00;65039.31;4932437;28;20670;-73
2022/05/30 02:38:36;;;;;;;;;;;;;;;-145.76;100.00;65039.31;4950007;28;20836;-73
2022/05/30 02:41:02;;;;;;;10.38;3.95;;;;;;;-145.76;100.00;65039.31;4930301;28;20318;-73
2022/05/30 02:43:27;;;;;;;10.75;4.70;;;;;;;-145.76;100.00;65039.31;4946050;28;20125;-73
2022/05/30 02:45:52;;;;;;;11.02;4.50;;;;;;;-145.76;100.00;65039.31;4932267;28;20133;-73
2022/05/30 02:48:18;;;;;;;13.25;4.40;;;;;;;-145.76;100.00;65039.31;4944522;28;20627;-73
2022/05/30 02:50:45;;;;;;;12.02;4.97;;;;;;;-145.76;100.00;65039.31;4927497;28;20038;-74
2022/05/30 02:53:11;;;;;;;15.48;5.32;;;;;;;-145.76;100.00;65039.31;4944155;28;20061;-73
2022/05/30 02:55:36;;;;;;;12.00;5.38;;;;;;;-145.76;100.00;65039.31;4946066;28;20107;-74
2022/05/30 02:58:03;;;;;;;12.00;4.20;;;;;;;-145.76;100.00;65039.31;4927242;28;20054;-74
2022/05/30 03:00:28;;;;;;;13.30;5.45;;;;;;;-145.76;100.00;65039.31;4944463;28;20044;-73
2022/05/30 03:02:54;;;;;;;11.45;4.78;;;;;;;-145.76;100.00;65039.31;4929560;28;20042;-74
2022/05/30 03:05:19;;;;;;;16.02;5.78;;;;;;;-145.76;100.00;65039.31;4944906;28;20525;-74
2022/05/30 03:07:45;;;;;;;14.48;5.60;;;;;;;-145.76;100.00;65039.31;4930560;28;20105;-73
2022/05/30 03:10:10;;;;;;;13.63;5.50;;;;;;;-145.76;100.00;65039.31;4925953;28;20034;-74
2022/05/30 03:12:36;;;;;;;13.02;5.00;;;;;;;-145.76;100.00;65039.31;4957505;28;20061;-74
2022/05/30 03:15:01;;;;;;;14.43;5.80;;;;;;;-145.76;100.00;65039.31;4936616;28;20049;-74
2022/05/30 03:17:27;;;;;;;15.50;5.10;;;;;;;-145.76;100.00;65039.31;4947119;28;20050;-75
2022/05/30 03:19:52;;;;;;;16.48;6.57;;;;;;;-145.76;100.00;65039.31;4928409;28;20624;-75
2022/05/30 03:22:18;;;;;;;13.48;6.45;;;;;;;-145.76;100.00;65039.31;4948418;28;20045;-75
2022/05/30 03:24:44;;;;;;;12.10;5.43;;;;;;;-145.76;100.00;65039.31;4928421;28;20053;-75
2022/05/30 03:27:10;;;;;;;19.27;5.60;;;;;;;-145.76;100.00;65039.31;4948873;28;20416;-75
2022/05/30 03:29:35;;;;;;;18.25;6.40;;;;;;;-145.76;100.00;65039.31;4930933;28;20042;-73
2022/05/30 03:32:00;;;;;;;12.52;6.20;;;;;;;-145.76;100.00;65039.31;4942903;28;20111;-73
2022/05/30 03:34:26;;;;;;;17.65;6.72;;;;;;;-145.76;100.00;65039.31;4944275;28;20025;-73
2022/05/30 03:36:51;;;;;;;16.50;5.72;;;;;;;-145.76;100.00;65039.31;4910638;28;20056;-73
2022/05/30 03:39:17;;;;;;;14.30;5.70;;;;;;;-145.76;100.00;65039.31;4943789;28;20073;-74
2022/05/30 03:41:42;;;;;;;12.88;6.32;;;;;;;-145.76;100.00;65039.31;4933825;28;20030;-74
2022/05/30 03:44:07;;;;;;;13.30;6.35;;;;;;;-145.76;100.00;65039.31;4942380;28;20030;-73
2022/05/30 03:46:33;;;;;;;16.75;6.78;;;;;;;-145.76;100.00;65039.31;4931567;28;20072;-73
2022/05/30 03:48:59;;;;;;;13.85;7.30;;;;;;;-145.76;100.00;65039.31;4948227;28;20128;-73
2022/05/30 03:51:24;;;;;;;18.00;6.57;;;;;;;-145.76;100.00;65039.31;4937535;28;20054;-73
2022/05/30 03:53:51;;;;;;;11.98;5.95;;;;;;;-145.76;100.00;65039.31;4938782;28;20128;-73
2022/05/30 03:56:17;;;;;;;18.38;6.90;;;;;;;-145.76;100.00;65039.31;4962623;28;20034;-73
2022/05/30 03:58:42;;;;;;;14.75;6.00;;;;;;;-145.76;100.00;65039.31;4932407;28;20045;-73
2022/05/30 04:01:08;;;;;;;15.68;5.97;;;;;;;-145.76;100.00;65039.31;4947370;28;20045;-73
2022/05/30 04:03:34;;;;;;;12.73;6.18;;;;;;;-145.76;100.00;65039.31;4932261;28;20046;-73
2022/05/30 04:06:00;;;;;;;10.20;5.53;;;;;;;-145.76;100.00;65039.31;4943036;28;20041;-73
2022/05/30 04:08:25;;;;;;;18.50;6.03;;;;;;;-145.76;100.00;65039.31;4934962;28;20050;-73
2022/05/30 04:10:51;;;;;;;10.98;5.35;;;;;;;-145.76;100.00;65039.31;4947358;28;20033;-75
2022/05/30 04:13:16;;;;;;;13.20;5.20;;;;;;;-145.76;100.00;65039.31;4943322;28;20117;-74
2022/05/30 04:15:42;;;;;;;15.10;6.28;;;;;;;-145.76;100.00;65039.31;4931670;28;20072;-74
2022/05/30 04:18:08;;;;;;;10.23;5.60;;;;;;;-145.76;100.00;65039.31;4945633;28;20075;-74
2022/05/30 04:20:33;;;;;;;13.05;5.50;;;;;;;-145.76;100.00;65039.31;4945658;28;20034;-75
2022/05/30 04:22:59;;;;;;;14.13;5.35;;;;;;;-145.76;100.00;65039.31;4944402;28;20589;-74
2022/05/30 04:25:26;;;;;;;14.25;5.30;;;;;;;-145.76;100.00;65039.31;4932979;28;20045;-73
2022/05/30 04:27:51;;;;;;;10.02;4.45;;;;;;;-145.76;100.00;65039.31;4947161;28;20065;-75
2022/05/30 04:30:17;;;;;;;12.00;4.63;;;;;;;-145.76;100.00;65039.31;4946044;28;20569;-75
2022/05/30 04:32:43;;;;;;;13.35;4.30;;;;;;;-145.76;100.00;65039.31;4935357;28;20184;-76
2022/05/30 04:35:09;;;;;;;8.50;4.07;;;;;;;-145.76;100.00;65039.31;4965557;28;20049;-75
2022/05/30 04:37:35;;;;;;;12.15;5.13;;;;;;;-145.76;100.00;65039.31;4933467;28;20074;-75
2022/05/30 04:40:01;;;;;;;11.27;4.20;;;;;;;-145.76;100.00;65039.31;4942968;28;20484;-73
2022/05/30 04:42:26;;;;;;;11.32;3.90;;;;;;;-145.76;100.00;65039.31;4928202;28;20042;-75
2022/05/30 04:44:51;;;;;;;9.75;4.30;;;;;;;-145.76;100.00;65039.31;4944255;28;20151;-73
2022/05/30 04:47:17;;;;;;;11.48;3.83;;;;;;;-145.76;100.00;65039.31;4924183;28;20165;-75
2022/05/30 04:49:43;;;;;;;11.35;3.55;;;;;;;-145.76;100.00;65039.31;4944515;28;20088;-75
2022/05/30 04:52:08;;;;;;;8.57;3.83;;;;;;;-145.76;100.00;65039.31;4941001;28;20123;-73
2022/05/30 04:54:34;;;;;;;11.65;3.53;;;;;;;-145.76;100.00;65039.31;4933262;28;20046;-73
2022/05/30 04:56:59;;;;;;;9.98;3.78;;;;;;;-145.76;100.00;65039.31;4946414;28;20045;-72
2022/05/30 04:59:25;;;;;;;13.65;3.92;;;;;;;-145.76;100.00;65039.31;4929278;28;20200;-72
2022/05/30 05:01:51;;;;;;;13.52;3.20;;;;;;;-145.76;100.00;65039.31;4940340;28;20044;-72
2022/05/30 05:04:16;;;;;;;10.50;4.25;;;;;;;-145.76;100.00;65039.31;4923389;28;20072;-72
2022/05/30 05:06:45;;;;;;;11.98;3.33;;;;;;;-145.76;100.00;65039.31;4941996;28;20041;-75
2022/05/30 05:09:16;;;;;;;12.60;2.88;;;;;;;-145.76;100.00;65039.31;4927756;28;20498;-73
2022/05/30 05:11:42;;;;;;;11.20;2.28;;;;;;;-145.76;100.00;65039.31;4946149;28;20148;-73
2022/05/30 05:14:08;;;;;;;7.30;2.60;;;;;;;-145.76;100.00;65039.31;4944507;28;20086;-73
2022/05/30 05:16:34;;;;;;;9.10;2.63;;;;;;;-145.76;100.00;65039.31;4890731;28;1112945;-73
2022/05/30 05:19:00;;;;;;;9.30;2.15;;;;;;;-145.76;100.00;65039.31;4947854;28;20065;-72
2022/05/30 05:21:35;;;;;;;3.95;1.60;;;;;;;-145.76;100.00;65039.31;4926075;28;23622;-73
2022/05/30 05:24:02;;;;;;;5.30;1.65;;;;;;;-145.76;100.00;65039.31;4944030;28;20045;-73
2022/05/30 05:26:28;;;;;;;9.43;1.92;;;;;;;-145.76;100.00;65039.31;4945269;28;21231;-74
2022/05/30 05:28:54;;;;;;;10.95;2.05;;;;;;;-145.76;100.00;65039.31;4945206;28;20068;-74
2022/05/30 05:31:27;;;;;;;7.50;2.28;;;;;;;-145.76;100.00;65039.31;4926172;28;20161;-74
2022/05/30 05:33:54;;;;;;;7.22;1.98;;;;;;;-145.76;100.00;65039.31;4946137;28;20521;-73
2022/05/30 05:36:25;;;;;;;5.35;1.88;;;;;;;-145.76;100.00;65039.31;4936127;28;20037;-74
2022/05/30 05:38:51;;;;;;;7.13;2.08;;;;;;;-145.76;100.00;65039.31;4932977;28;20060;-74
2022/05/30 05:41:18;;;;;;;5.78;1.80;;;;;;;-145.76;100.00;65039.31;4944517;28;20029;-74
2022/05/30 05:43:43;;;;;;;6.55;1.63;;;;;;;-145.76;100.00;65039.31;4929889;28;20521;-74
2022/05/30 05:46:16;;;;;;;5.70;1.38;;;;;;;-145.76;100.00;65039.31;4942610;28;20125;-74
2022/05/30 05:48:42;;;;;;;5.05;1.50;;;;;;;-145.76;100.00;65039.31;4927128;28;20157;-74
2022/05/30 05:51:07;;;;;;;7.10;1.52;;;;;;;-145.76;100.00;65039.31;4945637;28;20191;-74
2022/05/30 05:53:33;;;;;;;6.68;1.90;;;;;;;-145.76;100.00;65039.31;4927678;28;20176;-75
2022/05/30 05:55:58;;;;;;;4.90;1.95;;;;;;;-145.76;100.00;65039.31;4943240;28;20037;-74
2022/05/30 05:58:24;;;;;;;5.78;2.35;;;;;;;-145.76;100.00;65039.31;4938199;28;20089;-74
2022/05/30 06:00:49;;;;;;;10.00;2.50;;;;;;;-145.76;100.00;65039.31;4934885;28;20170;-75
2022/05/30 06:03:15;;;;;;;8.05;2.15;;;;;;;-145.76;100.00;65039.31;4945985;28;20038;-75
2022/05/30 06:05:40;;;;;;;3.30;1.25;;;;;;;-145.76;100.00;65039.31;4929464;28;20045;-75
2022/05/30 06:08:06;;;;;;;5.05;1.15;;;;;;;-145.76;100.00;65039.31;4945173;28;20042;-74
2022/05/30 06:10:33;;;;;;;5.85;1.30;;;;;;;-145.76;100.00;65039.31;4931822;28;20096;-75
2022/05/30 06:12:58;;;;;;;5.50;1.08;;;;;;;-145.76;100.00;65039.31;4945321;28;20037;-75
2022/05/30 06:15:24;;;;;;;4.40;1.08;;;;;;;-145.76;100.00;65039.31;4930421;28;20034;-74
2022/05/30 06:17:49;;;;;;;6.90;1.10;;;;;;;-145.76;100.00;65039.31;4945948;28;20065;-74
2022/05/30 06:20:17;;;;;;;5.53;1.40;;;;;;;-145.76;100.00;65039.31;4927960;28;20096;-75
2022/05/30 06:22:42;;;;;;;4.05;0.80;;;;;;;-145.76;100.00;65039.31;4930088;28;21501;-74
2022/05/30 06:25:08;;;;;;;6.30;1.17;;;;;;;-145.76;100.00;65039.31;4947086;28;20042;-74
2022/05/30 06:27:34;;;;;;;6.25;1.13;;;;;;;-145.76;100.00;65039.31;4934330;28;20658;-75
2022/05/30 06:30:01;;;;;;;4.55;0.95;;;;;;;-145.76;100.00;65039.31;4952672;28;20029;-75
2022/05/30 06:32:26;;;;;;;5.63;1.45;;;;;;;-145.76;100.00;65039.31;4938682;28;23620;-74
2022/05/30 06:34:52;;;;;;;3.55;1.20;;;;;;;-145.76;100.00;65039.31;4965207;28;20094;-74
2022/05/30 06:37:17;;;;;;;4.88;1.50;;;;;;;-145.76;100.00;65039.31;4939379;28;20044;-74
2022/05/30 06:39:43;;;;;;;3.55;0.98;;;;;;;-145.76;100.00;65039.31;4934916;28;20037;-74
2022/05/30 06:42:12;;;;;;;7.10;1.35;;;;;;;-145.76;100.00;65039.31;4943664;28;24394;-73
2022/05/30 06:44:41;;;;;;;6.07;1.10;;;;;;;-145.76;100.00;65039.31;4910916;28;20129;-70
2022/05/30 06:47:07;;;;;;;7.40;1.33;;;;;;;-145.76;100.00;65039.31;4945924;28;20034;-70
2022/05/30 06:49:33;;;;;;;3.15;0.93;;;;;;;-145.76;100.00;65039.31;4930766;28;20564;-71
2022/05/30 06:51:59;;;;;;;4.78;1.40;;;;;;;-145.76;100.00;65039.31;4942592;28;20130;-70
2022/05/30 06:54:25;;;;;;;4.82;1.45;;;;;;;-145.76;100.00;65039.31;4928139;28;20045;-70
2022/05/30 06:59:37;;;;;;;5.22;1.08;;;;;;;-145.76;100.00;65039.31;4939582;28;20157;-71
2022/05/30 07:02:04;;;;;;;3.97;1.15;;;;;;;-145.76;100.00;65039.31;4937706;28;20046;-72
2022/05/30 07:04:34;;;;;;;3.95;1.10;;;;;;;-145.76;100.00;65039.31;4941892;28;20053;-71
2022/05/30 07:07:04;;;;;;;2.58;0.95;;;;;;;-145.76;100.00;65039.31;4920722;28;20034;-72
2022/05/30 07:09:29;;;;;;;5.30;1.40;;;;;;;-145.76;100.00;65039.31;4937363;28;20041;-72
2022/05/30 07:11:55;;;;;;;6.85;1.08;;;;;;;-145.76;100.00;65039.31;4926135;28;20378;-71
2022/05/30 07:14:20;;;;;;;3.10;0.80;;;;;;;-145.76;100.00;65039.31;4940464;28;20482;-72
2022/05/30 07:16:46;;;;;;;6.30;1.38;;;;;;;-145.76;100.00;65039.31;4927867;28;20062;-71
2022/05/30 07:19:11;;;;;;;5.13;0.98;;;;;;;-145.76;100.00;65039.31;4943756;28;20046;-74
2022/05/30 07:21:38;;;;;;;4.05;0.90;;;;;;;-145.76;100.00;65039.31;4929729;28;20038;-74
2022/05/30 07:24:05;;;;;;;3.08;0.90;;;;;;;-145.76;100.00;65039.31;4942212;28;20495;-74
2022/05/30 07:26:30;;;;;;;3.78;1.05;;;;;;;-145.76;100.00;65039.31;4920149;28;20755;-74
2022/05/30 07:28:55;;;;;;;3.70;0.93;;;;;;;-145.76;100.00;65039.31;4926026;28;20092;-73
2022/05/30 07:31:26;;;;;;;6.40;1.52;;;;;;;-145.76;100.00;65039.31;4941063;28;20038;-74
2022/05/30 07:33:52;;;;;;;7.10;2.30;;;;;;;-145.76;100.00;65039.31;4923622;28;20038;-73
2022/05/30 07:36:24;;;;;;;6.35;2.13;;;;;;;-145.76;100.00;65039.31;4935956;28;20128;-74
2022/05/30 07:38:51;;;;;;;6.40;1.60;;;;;;;-145.76;100.00;65039.31;4917779;28;20085;-74
2022/05/30 07:41:17;;;;;;;4.82;1.20;;;;;;;-145.76;100.00;65039.31;4915841;28;21003;-73
2022/05/30 07:43:44;;;;;;;5.22;1.08;;;;;;;-145.76;100.00;65039.31;4931943;28;21235;-74
2022/05/30 07:46:11;;;;;;;9.93;3.25;;;;;;;-145.76;100.00;65039.31;4920387;28;20552;-73
2022/05/30 07:48:37;;;;;;;6.35;2.28;;;;;;;-145.76;100.00;65039.31;4936458;28;20086;-74
2022/05/30 07:51:04;;;;;;;3.95;0.82;;;;;;;-145.76;100.00;65039.31;4920302;28;20170;-73
2022/05/30 07:53:30;;;;;;;2.63;0.65;;;;;;;-145.76;100.00;65039.31;4937314;28;20030;-73
2022/05/30 07:55:55;;;;;;;2.90;0.80;;;;;;;-145.76;100.00;65039.31;4925232;28;20674;-73
2022/05/30 07:58:21;;;;;;;3.75;1.33;;;;;;;-145.76;100.00;65039.31;4937324;28;20050;-74
2022/05/30 08:00:49;;;;;;;6.40;1.83;;;;;;;-145.76;100.00;65039.31;4910892;28;20078;-73
2022/05/30 08:03:16;;;;;;;4.60;1.85;;;;;;;-145.76;100.00;65039.31;4941277;28;20038;-73
2022/05/30 08:05:43;;;;;;;5.43;0.85;;;;;;;-145.76;100.00;65039.31;4941225;28;20039;-74
2022/05/30 08:08:09;;;;;;;2.63;0.65;;;;;;;-145.76;100.00;65039.31;4925274;28;20050;-73
2022/05/30 08:10:35;;;;;;;2.20;0.50;;;;;;;-145.76;100.00;65039.31;4944355;28;20068;-73
2022/05/30 08:13:00;;;;;;;2.22;0.70;;;;;;;-145.76;100.00;65039.31;4914118;28;20128;-73
2022/05/30 08:15:26;;;;;;;5.18;0.80;;;;;;;-145.76;100.00;65039.31;4946580;28;20420;-73
2022/05/30 08:17:56;;;;;;;2.50;0.50;;;;;;;-145.76;100.00;65039.31;4928425;28;20204;-73
2022/05/30 08:20:21;;;;;;;2.50;0.43;;;;;;;-145.76;100.00;65039.31;4947998;28;20037;-73
2022/05/30 08:22:47;;;;;;;5.00;0.52;;;;;;;-145.76;100.00;65039.31;4934752;28;20634;-73
2022/05/30 08:25:16;;;;;;;3.00;0.75;;;;;;;-145.76;100.00;65039.31;4947277;28;20747;-73
2022/05/30 08:27:42;;;;;;;3.55;0.70;;;;;;;-145.76;100.00;65039.31;4946815;28;20034;-73
2022/05/30 08:30:09;;;;;;;3.30;0.60;;;;;;;-145.76;100.00;65039.31;4931447;28;20099;-74
2022/05/30 08:32:37;;;;;;;1.70;0.63;;;;;;;-145.76;100.00;65039.31;4946810;28;20267;-73
2022/05/30 08:35:05;;;;;;;1.67;0.30;;;;;;;-145.76;100.00;65039.31;4934145;28;22560;-74
2022/05/30 08:37:33;;;;;;;1.90;0.30;;;;;;;-145.76;100.00;65039.31;4955772;28;20202;-73
2022/05/30 08:42:44;;;;;;;1.23;0.52;;;;;;;-145.76;100.00;65039.31;4944218;28;20043;-77
2022/05/30 08:45:13;;;;;;;0.52;0.17;;;;;;;-145.76;100.00;65039.31;4932547;28;20074;-74
2022/05/30 08:47:57;;;;;;;1.52;0.28;;;;;;;-145.76;100.00;65039.31;4943364;28;20383;-74
2022/05/30 08:50:38;;;;;;;1.38;0.40;;;;;;;-145.76;100.00;65039.31;4929722;28;20565;-75
2022/05/30 08:53:36;;;;;;;2.20;0.50;;;;;;;-145.76;100.00;65039.31;4925822;28;20090;-74
2022/05/30 08:56:17;;;;;;;1.90;0.30;;;;;;;-145.76;100.00;65039.31;4930738;28;20037;-74
2022/05/30 08:59:07;;;;;;;1.10;0.38;;;;;;;-145.76;100.00;65039.31;4944853;28;20160;-74
2022/05/30 09:01:37;;;;;;;1.13;0.30;;;;;;;-145.76;100.00;65039.31;4926459;28;20046;-74
2022/05/30 09:04:09;;;;;;;1.95;0.50;;;;;;;-145.76;100.00;65039.31;4943642;28;20157;-74
2022/05/30 09:06:41;;;;;;;3.15;0.57;;;;;;;-145.76;100.00;65039.31;4946988;28;20074;-74
2022/05/30 09:09:15;;;;;;;4.00;0.63;;;;;;;-145.76;100.00;65039.31;4926525;28;20042;-74
2022/05/30 09:11:47;;;;;;;2.78;0.80;;;;;;;-145.76;100.00;65039.31;4944257;28;20094;-76
2022/05/30 09:14:21;;;;;;;3.92;0.60;;;;;;;-145.76;100.00;65039.31;4931599;28;21604;-73
2022/05/30 09:16:51;;;;;;;3.53;0.82;;;;;;;-145.76;100.00;65039.31;4945933;28;20128;-73
2022/05/30 09:19:20;;;;;;;2.08;0.70;;;;;;;-145.76;100.00;65039.31;4927332;28;20526;-73
2022/05/30 09:21:46;;;;;;;1.98;0.40;;;;;;;-145.76;100.00;65039.31;4942087;28;20084;-73
2022/05/30 09:24:13;;;;;;;3.97;0.85;;;;;;;-145.76;100.00;65039.31;4927624;28;20041;-73
2022/05/30 09:26:42;;;;;;;2.97;0.60;;;;;;;-145.76;100.00;65039.31;4925999;28;20038;-73
2022/05/30 09:29:29;;;;;;;1.67;0.43;;;;;;;-145.76;100.00;65039.31;4924359;28;20168;-73
2022/05/30 09:32:24;;;;;;;2.00;0.40;;;;;;;-145.76;100.00;65039.31;4945740;28;20038;-74
2022/05/30 09:34:52;;;;;;;3.47;0.60;;;;;;;-145.76;100.00;65039.31;4924629;28;20145;-73
2022/05/30 09:37:35;;;;;;;3.97;0.50;;;;;;;-145.76;100.00;65039.31;4956420;28;20084;-73
2022/05/30 09:40:01;;;;;;;2.00;0.50;;;;;;;-145.76;100.00;65039.31;4940001;28;20060;-74
2022/05/30 09:42:26;;;;;;;3.45;0.47;;;;;;;-145.76;100.00;65039.31;4936000;28;20069;-73
2022/05/30 09:44:55;;;;;;;1.92;0.43;;;;;;;-145.76;100.00;65039.31;4944615;28;20092;-71
2022/05/30 09:47:22;;;;;;;3.88;0.60;;;;;;;-145.76;100.00;65039.31;4929448;28;20435;-71
2022/05/30 09:49:54;;;;;;;1.33;0.35;;;;;;;-145.76;100.00;65039.31;4943695;28;20176;-72
2022/05/30 09:52:37;;;;;;;2.83;0.53;;;;;;;-145.76;100.00;65039.31;4927956;28;20084;-72
2022/05/30 09:55:33;;;;;;;2.90;0.50;;;;;;;-145.76;100.00;65039.31;4946348;28;20033;-71
2022/05/30 09:57:59;;;;;;;3.72;0.40;;;;;;;-145.76;100.00;65039.31;4919856;28;20054;-72
2022/05/30 10:00:27;;;;;;;1.20;0.32;;;;;;;-145.76;100.00;65039.31;4936654;28;20203;-72
2022/05/30 10:03:25;;;;;;;4.07;1.77;;;;;;;-145.76;100.00;65039.31;4927285;28;20057;-72
2022/05/30 10:05:50;;;;;;;5.65;1.17;;;;;;;-145.76;100.00;65039.31;4944494;28;20059;-72
2022/05/30 10:08:30;;;;;;;2.97;0.77;;;;;;;-145.76;100.00;65039.31;4922510;28;20186;-72
2022/05/30 10:10:56;;;;;;;4.30;0.93;;;;;;;-145.76;100.00;65039.31;4943935;28;20065;-72
2022/05/30 10:13:49;;;;;;;1.65;0.60;;;;;;;-145.76;100.00;65039.31;4922901;28;20065;-73
2022/05/30 10:16:28;;;;;;;1.88;0.52;;;;;;;-145.76;100.00;65039.31;4941451;28;20062;-72
2022/05/30 10:18:55;;;;;;;2.83;0.50;;;;;;;-145.76;100.00;65039.31;4939917;28;22035;-72
2022/05/30 10:28:20;;;;;;;2.50;0.60;;;;;;;-145.76;100.00;65039.31;4949990;28;20044;-72
2022/05/30 10:31:07;;;;;;;4.60;0.32;;;;;;;-145.76;100.00;65039.31;4923026;28;20041;-73
2022/05/30 10:33:56;;;;;;;2.75;0.60;;;;;;;-145.76;100.00;65039.31;4941128;28;20119;-71
2022/05/30 10:36:39;;;;;;;2.28;0.40;;;;;;;-145.76;100.00;65039.31;4928162;28;20125;-71
2022/05/30 10:39:07;;;;;;;;;;;;;;;-145.76;100.00;65039.31;4945790;28;20072;-72
2022/05/30 10:41:43;;;;;;;3.80;0.60;;;;;;;-145.76;100.00;65039.31;4929521;28;19921;-72
2022/05/30 10:44:15;;;;;;;2.67;0.90;;;;;;;-145.76;100.00;65039.31;4940994;28;20144;-72
2022/05/30 10:47:05;;;;;;;4.00;0.50;;;;;;;-145.76;100.00;65039.31;4930623;28;20220;-72
2022/05/30 10:49:41;;;;;;;2.40;0.80;;;;;;;-145.76;100.00;65039.31;4943454;28;20060;-72
2022/05/30 10:52:37;;;;;;;2.40;0.63;;;;;;;-145.76;100.00;65039.31;4933341;28;20049;-74
2022/05/30 10:55:20;;;;;;;2.13;0.50;;;;;;;-145.76;100.00;65039.31;4944583;28;20045;-72
2022/05/30 10:57:59;;;;;;;2.55;0.60;;;;;;;-145.76;100.00;65039.31;4912077;28;20507;-73
2022/05/30 11:00:33;;;;;;;2.33;0.55;;;;;;;-145.76;100.00;65039.31;4941254;28;20838;-71
2022/05/30 11:03:12;;;;;;;2.97;0.70;;;;;;;-145.76;100.00;65039.31;4940571;28;20121;-70
2022/05/30 11:05:55;;;;;;;2.22;0.43;;;;;;;-145.76;100.00;65039.31;4941633;28;20544;-71
2022/05/30 11:08:21;;;;;;;3.78;0.68;;;;;;;-145.76;100.00;65039.31;4941836;28;20042;-71
2022/05/30 11:10:51;;;;;;;2.95;0.57;;;;;;;-145.76;100.00;65039.31;4927502;28;20085;-70
2022/05/30 11:13:44;;;;;;;3.22;0.52;;;;;;;-145.76;100.00;65039.31;4943004;28;23439;-72
2022/05/30 11:16:31;;;;;;;3.05;0.75;;;;;;;-145.76;100.00;65039.31;4904388;28;20053;-72
2022/05/30 11:19:07;;;;;;;5.93;0.93;;;;;;;-145.76;100.00;65039.31;4949385;28;20054;-72
2022/05/30 11:21:47;;;;;;;2.97;0.43;;;;;;;-145.76;100.00;65039.31;4926457;28;20042;-72
2022/05/30 11:24:14;;;;;;;4.43;0.90;;;;;;;-145.76;100.00;65039.31;4944552;28;20046;-72
2022/05/30 11:27:10;;;;;;;2.72;0.80;;;;;;;-145.76;100.00;65039.31;4926958;28;20046;-72
2022/05/30 11:29:56;;;;;;;4.10;0.70;;;;;;;-145.76;100.00;65039.31;4944954;28;20046;-72
2022/05/30 11:32:47;;;;;;;5.13;0.93;;;;;;;-145.76;100.00;65039.31;4941062;28;20058;-71
2022/05/30 11:35:34;;;;;;;3.13;0.80;;;;;;;-145.76;100.00;65039.31;4943095;28;20038;-71
2022/05/30 11:38:22;;;;;;;1.02;0.45;;;;;;;-145.76;100.00;65039.31;4929272;28;20061;-71
2022/05/30 11:41:07;;;;;;;1.90;0.30;;;;;;;-145.76;100.00;65039.31;4941554;28;20038;-71
2022/05/30 11:43:42;;;;;;;0.60;0.20;;;;;;;-145.76;100.00;65039.31;4931583;28;20046;-71